createdAt,value
2023-10-26T00:00:40.718Z,98449.25
2023-10-26T00:03:07.510Z,98449.25
2023-10-26T00:05:34.323Z,98441.06
2023-10-26T00:08:01.024Z,98442.72
2023-10-26T00:10:27.728Z,98438.09
2023-10-26T00:12:54.427Z,98438.91
2023-10-26T00:15:21.145Z,98439.19
2023-10-26T00:17:47.914Z,98438.34
2023-10-26T00:20:14.670Z,98434.81
2023-10-26T00:22:41.329Z,98425.81
2023-10-26T00:25:08.664Z,98419.78
2023-10-26T00:27:41.636Z,98424.41
2023-10-26T00:30:12.432Z,98427.41
2023-10-26T00:32:40.792Z,98425.75
2023-10-26T00:35:08.027Z,98426.56
2023-10-26T00:37:35.270Z,98439.13
2023-10-26T00:40:02.051Z,98420.88
2023-10-26T00:42:28.794Z,98429.63
2023-10-26T00:44:58.094Z,98423.09
2023-10-26T00:47:27.098Z,98414.91
2023-10-26T00:49:55.098Z,98405.66
2023-10-26T00:52:24.200Z,98407.56
2023-10-26T00:54:53.765Z,98406.75
2023-10-26T00:57:24.089Z,98411.63
2023-10-26T00:59:52.147Z,98410.81
2023-10-26T01:02:20.165Z,98411.06
2023-10-26T01:04:47.261Z,98412.72
2023-10-26T01:07:16.652Z,98412.13
2023-10-26T01:09:43.697Z,98416.19
2023-10-26T01:12:11.090Z,98432.78
2023-10-26T01:14:38.086Z,98433.03
2023-10-26T01:17:04.905Z,98431.66
2023-10-26T01:19:43.209Z,98432.72
2023-10-26T01:22:10.940Z,98439.28
2023-10-26T01:24:37.957Z,98428.66
2023-10-26T01:27:05.756Z,98424.28
2023-10-26T01:29:33.000Z,98434.84
2023-10-26T01:32:00.280Z,98441.38
2023-10-26T01:34:27.160Z,98438.91
2023-10-26T01:36:53.942Z,98432.06
2023-10-26T01:39:20.814Z,98429.34
2023-10-26T01:41:48.273Z,98420.63
2023-10-26T01:44:15.127Z,98427.13
2023-10-26T01:46:41.822Z,98430.34
2023-10-26T01:49:08.591Z,98427.06
2023-10-26T01:51:36.008Z,98450.75
2023-10-26T01:54:03.041Z,98476.00
2023-10-26T01:56:31.016Z,98508.34
2023-10-26T01:58:58.478Z,98508.59
2023-10-26T02:01:25.653Z,98468.84
2023-10-26T02:03:53.206Z,98458.44
2023-10-26T02:06:20.065Z,98466.03
2023-10-26T02:08:46.910Z,98449.16
2023-10-26T02:11:14.044Z,98432.75
2023-10-26T02:13:41.381Z,98429.47
2023-10-26T02:16:08.488Z,98426.75
2023-10-26T02:18:36.935Z,98412.00
2023-10-26T02:21:03.992Z,98407.06
2023-10-26T02:23:30.740Z,98411.94
2023-10-26T02:25:57.670Z,98397.75
2023-10-26T02:28:24.597Z,98396.94
2023-10-26T02:30:51.328Z,98398.25
2023-10-26T02:33:18.054Z,98400.41
2023-10-26T02:35:44.866Z,98406.09
2023-10-26T02:38:12.142Z,98402.31
2023-10-26T02:40:39.455Z,98412.34
2023-10-26T02:43:06.341Z,98408.31
2023-10-26T02:45:33.149Z,98400.16
2023-10-26T02:48:00.377Z,98402.63
2023-10-26T02:50:28.628Z,98384.16
2023-10-26T02:52:55.498Z,98374.91
2023-10-26T02:55:22.398Z,98395.34
2023-10-26T02:57:49.469Z,98393.44
2023-10-26T03:00:17.630Z,98379.84
2023-10-26T03:02:44.816Z,98379.84
2023-10-26T03:05:11.674Z,98388.59
2023-10-26T03:07:38.305Z,98390.53
2023-10-26T03:10:06.571Z,98390.03
2023-10-26T03:12:33.413Z,98402.88
2023-10-26T03:15:01.287Z,98401.31
2023-10-26T03:17:28.234Z,98396.69
2023-10-26T03:19:55.043Z,98402.69
2023-10-26T03:22:21.956Z,98394.28
2023-10-26T03:24:50.780Z,98390.50
2023-10-26T03:27:17.787Z,98386.44
2023-10-26T03:29:45.688Z,98382.63
2023-10-26T03:32:12.501Z,98394.91
2023-10-26T03:34:39.831Z,98390.59
2023-10-26T03:37:06.615Z,98385.16
2023-10-26T03:39:34.706Z,98403.97
2023-10-26T03:42:01.688Z,98402.06
2023-10-26T03:44:29.470Z,98395.53
2023-10-26T03:46:56.349Z,98398.53
2023-10-26T03:49:23.145Z,98399.34
2023-10-26T03:51:50.141Z,98390.59
2023-10-26T03:54:16.974Z,98382.69
2023-10-26T03:56:43.826Z,98394.41
2023-10-26T03:59:10.566Z,98379.41
2023-10-26T04:01:37.316Z,98369.59
2023-10-26T04:04:04.929Z,98372.56
2023-10-26T04:06:31.625Z,98376.63
2023-10-26T04:08:58.555Z,98377.69
2023-10-26T04:11:25.787Z,98377.13
2023-10-26T04:13:55.116Z,98373.84
2023-10-26T04:16:22.515Z,98374.09
2023-10-26T04:18:49.291Z,98372.44
2023-10-26T04:21:16.058Z,98371.88
2023-10-26T04:23:42.773Z,98364.78
2023-10-26T04:26:14.530Z,98357.72
2023-10-26T04:28:51.393Z,98370.75
2023-10-26T04:31:19.181Z,98379.97
2023-10-26T04:33:46.126Z,98375.63
2023-10-26T04:36:13.087Z,98370.16
2023-10-26T04:38:40.300Z,98372.91
2023-10-26T04:41:07.065Z,98361.44
2023-10-26T04:43:33.862Z,98360.88
2023-10-26T04:46:00.739Z,98356.50
2023-10-26T04:48:27.477Z,98345.06
2023-10-26T04:50:54.196Z,98365.44
2023-10-26T04:53:20.892Z,98363.22
2023-10-26T04:55:47.554Z,98366.19
2023-10-26T04:58:15.832Z,98347.66
2023-10-26T05:00:42.660Z,98363.91
2023-10-26T05:03:09.392Z,98364.41
2023-10-26T05:05:36.314Z,98355.63
2023-10-26T05:08:05.126Z,98359.44
2023-10-26T05:10:31.957Z,98374.09
2023-10-26T05:12:58.711Z,98362.09
2023-10-26T05:15:25.573Z,98355.50
2023-10-26T05:17:52.378Z,98358.16
2023-10-26T05:20:19.317Z,98354.31
2023-10-26T05:22:46.039Z,98342.28
2023-10-26T05:25:14.926Z,98332.50
2023-10-26T05:27:42.003Z,98326.50
2023-10-26T05:30:09.184Z,98314.22
2023-10-26T05:32:36.001Z,98316.38
2023-10-26T05:35:02.794Z,98307.63
2023-10-26T05:37:29.486Z,98317.69
2023-10-26T05:39:56.200Z,98325.28
2023-10-26T05:42:23.008Z,98328.25
2023-10-26T05:44:49.805Z,98331.22
2023-10-26T05:47:21.776Z,98327.09
2023-10-26T05:49:48.925Z,98319.19
2023-10-26T05:52:16.009Z,98317.53
2023-10-26T05:54:43.355Z,98315.31
2023-10-26T05:57:10.417Z,98319.69
2023-10-26T05:59:37.141Z,98307.19
2023-10-26T06:02:03.941Z,98300.09
2023-10-26T06:04:30.776Z,98299.03
2023-10-26T06:06:57.425Z,98294.16
2023-10-26T06:09:25.455Z,98300.41
2023-10-26T06:11:53.217Z,98300.41
2023-10-26T06:14:21.557Z,98297.44
2023-10-26T06:16:49.010Z,98299.66
2023-10-26T06:19:15.708Z,98300.25
2023-10-26T06:21:42.558Z,98291.59
2023-10-26T06:24:09.479Z,98284.00
2023-10-26T06:26:36.267Z,98286.22
2023-10-26T06:29:03.295Z,98281.34
2023-10-26T06:31:30.063Z,98278.13
2023-10-26T06:33:56.769Z,98275.97
2023-10-26T06:36:23.491Z,98279.28
2023-10-26T06:38:55.555Z,98272.50
2023-10-26T06:41:22.407Z,98261.91
2023-10-26T06:43:49.069Z,98258.13
2023-10-26T06:46:16.014Z,98255.97
2023-10-26T06:48:42.727Z,98242.38
2023-10-26T06:51:09.534Z,98230.41
2023-10-26T06:53:36.412Z,98246.75
2023-10-26T06:56:03.422Z,98244.59
2023-10-26T06:58:30.144Z,98247.88
2023-10-26T07:00:56.870Z,98247.38
2023-10-26T07:03:42.820Z,98259.88
2023-10-26T07:06:13.724Z,98265.31
2023-10-26T07:08:40.482Z,98262.34
2023-10-26T07:11:08.852Z,98264.00
2023-10-26T07:13:35.547Z,98259.72
2023-10-26T07:16:03.296Z,98245.88
2023-10-26T07:18:30.900Z,98238.28
2023-10-26T07:20:58.712Z,98232.31
2023-10-26T07:23:25.448Z,98222.00
2023-10-26T07:25:52.108Z,98222.59
2023-10-26T07:28:18.854Z,98223.97
2023-10-26T07:30:45.962Z,98229.16
2023-10-26T07:33:12.714Z,98224.53
2023-10-26T07:35:42.249Z,98232.19
2023-10-26T07:38:35.620Z,98222.69
2023-10-26T07:40:58.322Z,98207.19
2023-10-26T07:43:25.007Z,98184.34
2023-10-26T07:45:52.544Z,98184.91
2023-10-26T07:48:19.707Z,98190.66
2023-10-26T07:50:46.589Z,98199.94
2023-10-26T07:53:15.297Z,98199.44
2023-10-26T07:55:42.232Z,98202.44
2023-10-26T07:58:08.936Z,98197.31
2023-10-26T08:00:39.385Z,98181.53
2023-10-26T08:03:06.463Z,98185.38
2023-10-26T08:05:33.240Z,98175.88
2023-10-26T08:08:00.070Z,98196.88
2023-10-26T08:10:27.338Z,98211.06
2023-10-26T08:12:54.533Z,98207.00
2023-10-26T08:16:31.965Z,98198.56
2023-10-26T08:18:08.712Z,98197.50
2023-10-26T08:20:35.684Z,98204.00
2023-10-26T08:23:05.711Z,98194.22
2023-10-26T08:25:38.753Z,98193.66
2023-10-26T08:28:05.522Z,98198.81
2023-10-26T08:30:32.297Z,98178.38
2023-10-26T08:33:01.201Z,98183.84
2023-10-26T08:35:28.059Z,98177.31
2023-10-26T08:37:54.834Z,98168.88
2023-10-26T08:40:22.017Z,98165.09
2023-10-26T08:42:49.024Z,98167.53
2023-10-26T08:45:27.675Z,98199.13
2023-10-26T08:47:57.864Z,98206.22
2023-10-26T08:50:25.663Z,98183.88
2023-10-26T08:52:55.275Z,98151.22
2023-10-26T08:55:22.106Z,98180.09
2023-10-26T08:57:51.891Z,98223.66
2023-10-26T09:00:19.580Z,98179.56
2023-10-26T09:02:49.185Z,98148.53
2023-10-26T09:05:16.454Z,98170.31
2023-10-26T09:07:43.414Z,98146.91
2023-10-26T09:10:11.191Z,98161.66
2023-10-26T09:12:38.257Z,98161.69
2023-10-26T09:15:09.848Z,98188.13
2023-10-26T09:17:37.199Z,98202.94
2023-10-26T09:20:18.706Z,98204.34
2023-10-26T09:22:45.423Z,98156.97
2023-10-26T09:25:14.140Z,98134.41
2023-10-26T09:27:41.887Z,98147.22
2023-10-26T09:30:29.736Z,98139.34
2023-10-26T09:33:00.322Z,98129.25
2023-10-26T09:35:28.007Z,98126.00
2023-10-26T09:37:54.986Z,98117.28
2023-10-26T09:40:25.678Z,98150.00
2023-10-26T09:42:52.979Z,98150.56
2023-10-26T09:45:21.191Z,98171.81
2023-10-26T09:47:48.225Z,98159.84
2023-10-26T09:50:15.652Z,98168.00
2023-10-26T09:52:43.726Z,98207.00
2023-10-26T09:55:12.524Z,98206.19
2023-10-26T09:57:52.364Z,98159.28
2023-10-26T10:00:19.272Z,98174.81
2023-10-26T10:03:06.413Z,98167.19
2023-10-26T10:05:38.529Z,98195.56
2023-10-26T10:08:06.039Z,98177.31
2023-10-26T10:10:34.121Z,98145.16
2023-10-26T10:13:01.479Z,98142.97
2023-10-26T10:15:44.380Z,98141.34
2023-10-26T10:18:11.526Z,98168.06
2023-10-26T10:20:41.705Z,98147.31
2023-10-26T10:23:09.419Z,98121.94
2023-10-26T10:25:51.396Z,98114.03
2023-10-26T10:28:19.533Z,98105.31
2023-10-26T10:31:00.406Z,98098.22
2023-10-26T10:33:29.010Z,98109.13
2023-10-26T10:36:05.798Z,98107.75
2023-10-26T10:38:33.648Z,98083.47
2023-10-26T10:41:00.385Z,98086.44
2023-10-26T10:43:46.603Z,98093.78
2023-10-26T10:46:23.146Z,98095.38
2023-10-26T10:48:57.857Z,98080.84
2023-10-26T10:51:30.910Z,98068.56
2023-10-26T10:54:01.050Z,98061.44
2023-10-26T10:56:39.846Z,98040.72
2023-10-26T10:59:42.130Z,98028.72
2023-10-26T11:02:14.025Z,98025.97
2023-10-26T11:05:09.223Z,98024.88
2023-10-26T11:07:39.975Z,98018.06
2023-10-26T11:10:07.372Z,98018.88
2023-10-26T11:12:34.317Z,98018.06
2023-10-26T11:15:01.508Z,98006.91
2023-10-26T11:17:30.553Z,97997.94
2023-10-26T11:19:57.364Z,97982.69
2023-10-26T11:22:24.443Z,97980.25
2023-10-26T11:24:51.547Z,97984.31
2023-10-26T11:27:20.302Z,97973.16
2023-10-26T11:30:01.211Z,97950.00
2023-10-26T11:32:30.442Z,97933.94
2023-10-26T11:35:10.000Z,97936.09
2023-10-26T11:37:42.904Z,97950.78
2023-10-26T11:40:11.483Z,97945.34
2023-10-26T11:42:53.325Z,97944.25
2023-10-26T11:45:22.434Z,97941.53
2023-10-26T11:47:53.598Z,97935.56
2023-10-26T11:50:22.276Z,97949.19
2023-10-26T11:52:49.592Z,97953.50
2023-10-26T11:55:16.953Z,97974.19
2023-10-26T11:57:43.721Z,97969.28
2023-10-26T12:00:11.188Z,97968.19
2023-10-26T12:02:37.906Z,97947.75
2023-10-26T12:05:05.020Z,97943.66
2023-10-26T12:07:32.562Z,97938.75
2023-10-26T12:09:59.238Z,97946.34
2023-10-26T12:12:26.752Z,97970.28
2023-10-26T12:14:53.504Z,97980.06
2023-10-26T12:17:20.160Z,97959.09
2023-10-26T12:19:46.804Z,97943.81
2023-10-26T12:22:13.551Z,97929.66
2023-10-26T12:24:40.416Z,97939.16
2023-10-26T12:27:07.038Z,97953.84
2023-10-26T12:29:33.703Z,97946.22
2023-10-26T12:32:00.446Z,97944.00
2023-10-26T12:34:27.097Z,97919.50
2023-10-26T12:36:53.737Z,97918.06
2023-10-26T12:39:20.376Z,97910.97
2023-10-26T12:41:47.004Z,97895.44
2023-10-26T12:44:13.787Z,97887.28
2023-10-26T12:46:40.543Z,97876.63
2023-10-26T12:49:07.149Z,97889.88
2023-10-26T12:51:34.567Z,97900.41
2023-10-26T12:54:09.111Z,97896.28
2023-10-26T12:56:37.967Z,97892.97
2023-10-26T12:59:04.753Z,97904.88
2023-10-26T13:01:31.564Z,97910.25
2023-10-26T13:03:59.474Z,97897.72
2023-10-26T13:06:26.383Z,97855.84
2023-10-26T13:08:53.056Z,97803.69
2023-10-26T13:11:19.824Z,97797.13
2023-10-26T13:13:46.598Z,97815.06
2023-10-26T13:16:13.327Z,97820.78
2023-10-26T13:18:41.410Z,97812.69
2023-10-26T13:21:10.239Z,97808.13
2023-10-26T13:23:36.998Z,97807.63
2023-10-26T13:26:03.663Z,97784.88
2023-10-26T13:28:30.966Z,97776.25
2023-10-26T13:30:57.706Z,97772.50
2023-10-26T13:33:24.438Z,97766.56
2023-10-26T13:35:51.113Z,97758.50
2023-10-26T13:38:17.778Z,97750.41
2023-10-26T13:40:45.177Z,97749.88
2023-10-26T13:43:12.557Z,97740.94
2023-10-26T13:45:39.555Z,97723.78
2023-10-26T13:48:09.650Z,97716.44
2023-10-26T13:50:39.176Z,97703.38
2023-10-26T13:53:05.860Z,97686.50
2023-10-26T13:55:39.525Z,97679.16
2023-10-26T13:58:09.377Z,97698.22
2023-10-26T14:00:36.571Z,97703.13
2023-10-26T14:03:04.787Z,97720.00
2023-10-26T14:05:32.290Z,97709.66
2023-10-26T14:07:59.653Z,97703.38
2023-10-26T14:10:26.651Z,97699.84
2023-10-26T14:12:53.709Z,97697.41
2023-10-26T14:15:20.522Z,97690.06
2023-10-26T14:17:47.529Z,97707.19
2023-10-26T14:20:14.365Z,97688.97
2023-10-26T14:22:41.803Z,97690.31
2023-10-26T14:25:08.972Z,97685.16
2023-10-26T14:27:35.882Z,97672.63
2023-10-26T14:30:02.687Z,97654.69
2023-10-26T14:32:29.594Z,97653.59
2023-10-26T14:34:56.282Z,97659.84
2023-10-26T14:37:23.104Z,97664.47
2023-10-26T14:39:49.841Z,97662.03
2023-10-26T14:42:16.745Z,97650.28
2023-10-26T14:44:43.706Z,97639.13
2023-10-26T14:47:10.719Z,97608.88
2023-10-26T14:49:37.691Z,97603.97
2023-10-26T14:52:05.186Z,97594.19
2023-10-26T14:54:33.144Z,97596.91
2023-10-26T14:56:59.795Z,97595.28
2023-10-26T14:59:28.636Z,97593.91
2023-10-26T15:01:58.553Z,97592.78
2023-10-26T15:04:25.410Z,97603.94
2023-10-26T15:06:53.316Z,97622.75
2023-10-26T15:09:28.977Z,97609.13
2023-10-26T15:12:07.208Z,97590.88
2023-10-26T15:14:34.168Z,97579.97
2023-10-26T15:17:01.248Z,97548.94
2023-10-26T15:19:27.962Z,97551.13
2023-10-26T15:21:56.087Z,97547.84
2023-10-26T15:24:23.756Z,97547.03
2023-10-26T15:26:50.827Z,97550.59
2023-10-26T15:29:17.649Z,97541.88
2023-10-26T15:31:48.553Z,97543.53
2023-10-26T15:34:16.659Z,97558.25
2023-10-26T15:36:44.093Z,97557.44
2023-10-26T15:39:11.333Z,97562.88
2023-10-26T15:41:43.902Z,97567.50
2023-10-26T15:44:10.854Z,97571.59
2023-10-26T15:46:38.133Z,97562.63
2023-10-26T15:49:33.825Z,97550.66
2023-10-26T15:51:54.518Z,97549.06
2023-10-26T15:54:21.789Z,97559.97
2023-10-26T15:56:48.587Z,97597.78
2023-10-26T15:59:16.704Z,97586.63
2023-10-26T16:01:44.063Z,97594.25
2023-10-26T16:04:11.361Z,97616.56
2023-10-26T16:06:38.194Z,97631.81
2023-10-26T16:09:05.268Z,97644.06
2023-10-26T16:11:31.971Z,97658.47
2023-10-26T16:13:58.623Z,97669.91
2023-10-26T16:16:25.448Z,97686.75
2023-10-26T16:18:52.262Z,97711.25
2023-10-26T16:21:18.959Z,97745.50
2023-10-26T16:23:45.686Z,97744.91
2023-10-26T16:26:12.674Z,97753.56
2023-10-26T16:28:39.497Z,97742.94
2023-10-26T16:31:06.306Z,97640.41
2023-10-26T16:33:33.023Z,97638.25
2023-10-26T16:36:00.741Z,97700.47
2023-10-26T16:38:27.544Z,97695.03
2023-10-26T16:40:54.785Z,97697.44
2023-10-26T16:43:22.410Z,97726.78
2023-10-26T16:45:49.231Z,97748.78
2023-10-26T16:48:17.324Z,97746.34
2023-10-26T16:50:45.115Z,97750.13
2023-10-26T16:53:27.267Z,97768.59
2023-10-26T16:55:59.172Z,97757.44
2023-10-26T16:58:25.926Z,97803.09
2023-10-26T17:00:52.676Z,97824.00
2023-10-26T17:03:19.532Z,97862.56
2023-10-26T17:05:46.217Z,97873.94
2023-10-26T17:08:13.201Z,97874.22
2023-10-26T17:10:41.623Z,97887.50
2023-10-26T17:13:10.432Z,97860.03
2023-10-26T17:15:37.194Z,97877.66
2023-10-26T17:18:04.102Z,97894.22
2023-10-26T17:20:30.811Z,97899.34
2023-10-26T17:22:57.492Z,97908.84
2023-10-26T17:25:24.109Z,97920.47
2023-10-26T17:27:51.996Z,97942.72
2023-10-26T17:30:20.118Z,97942.66
2023-10-26T17:32:48.244Z,97935.03
2023-10-26T17:35:14.991Z,97949.09
2023-10-26T17:37:41.590Z,97945.00
2023-10-26T17:40:08.651Z,97932.75
2023-10-26T17:42:36.174Z,97918.38
2023-10-26T17:45:03.045Z,97934.34
2023-10-26T17:47:29.881Z,97944.41
2023-10-26T17:49:57.273Z,97945.75
2023-10-26T17:52:24.268Z,97949.50
2023-10-26T17:54:50.995Z,97927.78
2023-10-26T17:57:17.813Z,97926.16
2023-10-26T17:59:44.755Z,97942.44
2023-10-26T18:02:11.689Z,97948.94
2023-10-26T18:04:38.455Z,97974.19
2023-10-26T18:07:05.168Z,97958.97
2023-10-26T18:09:31.951Z,97948.38
2023-10-26T18:11:58.630Z,97963.84
2023-10-26T18:14:26.459Z,97973.88
2023-10-26T18:16:55.878Z,97962.47
2023-10-26T18:19:22.829Z,97966.25
2023-10-26T18:21:49.582Z,97964.59
2023-10-26T18:24:16.612Z,97960.25
2023-10-26T18:26:43.621Z,97949.91
2023-10-26T18:29:10.255Z,97922.44
2023-10-26T18:31:36.985Z,97892.84
2023-10-26T18:34:04.613Z,97879.22
2023-10-26T18:36:33.106Z,97874.31
2023-10-26T18:38:59.959Z,97876.16
2023-10-26T18:41:26.960Z,97878.53
2023-10-26T18:43:54.479Z,97873.38
2023-10-26T18:46:21.333Z,97895.31
2023-10-26T18:48:48.278Z,97909.16
2023-10-26T18:51:15.027Z,97912.69
2023-10-26T18:53:42.713Z,97932.75
2023-10-26T18:56:16.655Z,97936.53
2023-10-26T18:58:43.671Z,97943.03
2023-10-26T19:01:10.511Z,97948.44
2023-10-26T19:03:46.093Z,97943.84
2023-10-26T19:06:23.963Z,97944.09
2023-10-26T19:08:50.672Z,97962.53
2023-10-26T19:11:17.718Z,97974.44
2023-10-26T19:13:44.790Z,97980.94
2023-10-26T19:16:11.861Z,97984.47
2023-10-26T19:18:38.822Z,98000.75
2023-10-26T19:21:06.285Z,98013.50
2023-10-26T19:23:33.157Z,98022.44
2023-10-26T19:25:59.861Z,98027.63
2023-10-26T19:28:26.653Z,98025.97
2023-10-26T19:30:56.368Z,98034.69
2023-10-26T19:33:24.280Z,98036.34
2023-10-26T19:35:51.195Z,98038.81
2023-10-26T19:38:18.301Z,98045.03
2023-10-26T19:40:45.295Z,98049.41
2023-10-26T19:43:12.208Z,98056.47
2023-10-26T19:45:41.459Z,98052.13
2023-10-26T19:48:09.156Z,98059.19
2023-10-26T19:50:35.936Z,98053.75
2023-10-26T19:53:02.641Z,98059.19
2023-10-26T19:55:29.389Z,98066.75
2023-10-26T19:57:58.562Z,98056.97
2023-10-26T20:00:27.319Z,98052.63
2023-10-26T20:02:54.175Z,98052.03
2023-10-26T20:05:21.168Z,98050.41
2023-10-26T20:07:48.077Z,98063.13
2023-10-26T20:10:14.927Z,98078.59
2023-10-26T20:12:41.718Z,98069.63
2023-10-26T20:15:10.404Z,98073.41
2023-10-26T20:17:37.173Z,98078.84
2023-10-26T20:20:07.898Z,98078.03
2023-10-26T20:22:35.192Z,98081.31
2023-10-26T20:25:02.295Z,98077.78
2023-10-26T20:27:29.108Z,98084.03
2023-10-26T20:29:56.044Z,98093.56
2023-10-26T20:32:22.733Z,98109.00
2023-10-26T20:34:49.542Z,98117.16
2023-10-26T20:37:16.542Z,98114.44
2023-10-26T20:39:44.853Z,98114.44
2023-10-26T20:42:11.927Z,98114.94
2023-10-26T20:44:38.639Z,98122.00
2023-10-26T20:47:06.560Z,98121.19
2023-10-26T20:49:33.371Z,98118.72
2023-10-26T20:52:00.043Z,98110.00
2023-10-26T20:54:26.685Z,98126.28
2023-10-26T20:56:53.416Z,98120.03
2023-10-26T20:59:20.131Z,98134.91
2023-10-26T21:01:46.855Z,98139.50
2023-10-26T21:04:13.777Z,98141.41
2023-10-26T21:06:40.589Z,98149.53
2023-10-26T21:09:07.388Z,98160.63
2023-10-26T21:11:34.070Z,98164.41
2023-10-26T21:14:00.812Z,98161.94
2023-10-26T21:16:27.911Z,98169.50
2023-10-26T21:18:54.765Z,98168.34
2023-10-26T21:21:21.417Z,98163.41
2023-10-26T21:23:48.133Z,98170.16
2023-10-26T21:26:14.925Z,98173.59
2023-10-26T21:28:42.930Z,98168.66
2023-10-26T21:31:10.237Z,98174.03
2023-10-26T21:33:37.198Z,98174.75
2023-10-26T21:36:10.104Z,98179.50
2023-10-26T21:38:36.819Z,98173.75
2023-10-26T21:41:05.845Z,98192.63
2023-10-26T21:43:33.762Z,98188.16
2023-10-26T21:46:07.860Z,98196.41
2023-10-26T21:48:37.832Z,98201.72
2023-10-26T21:51:08.458Z,98195.97
2023-10-26T21:53:35.325Z,98204.00
2023-10-26T21:56:02.221Z,98197.41
2023-10-26T21:58:29.103Z,98210.38
2023-10-26T22:00:55.979Z,98208.72
2023-10-26T22:03:22.978Z,98201.66
2023-10-26T22:05:49.864Z,98202.97
2023-10-26T22:08:17.063Z,98212.97
2023-10-26T22:10:43.789Z,98217.56
2023-10-26T22:13:10.603Z,98219.22
2023-10-26T22:15:37.485Z,98214.63
2023-10-26T22:18:04.371Z,98222.16
2023-10-26T22:20:31.408Z,98225.94
2023-10-26T22:22:58.049Z,98233.81
2023-10-26T22:25:25.042Z,98244.66
2023-10-26T22:27:51.759Z,98238.41
2023-10-26T22:30:18.760Z,98251.72
2023-10-26T22:32:45.544Z,98249.25
2023-10-26T22:35:12.592Z,98241.72
2023-10-26T22:37:39.412Z,98254.19
2023-10-26T22:40:08.049Z,98250.41
2023-10-26T22:42:35.066Z,98264.56
2023-10-26T22:45:01.739Z,98251.00
2023-10-26T22:47:28.555Z,98272.44
2023-10-26T22:49:56.026Z,98258.66
2023-10-26T22:52:22.815Z,98268.44
2023-10-26T22:54:49.507Z,98278.19
2023-10-26T22:57:16.181Z,98267.38
2023-10-26T22:59:46.469Z,98276.56
2023-10-26T23:02:13.365Z,98271.97
2023-10-26T23:04:40.053Z,98270.06
2023-10-26T23:07:06.889Z,98271.13
2023-10-26T23:09:33.615Z,98267.38
2023-10-26T23:12:00.500Z,98263.59
2023-10-26T23:14:27.972Z,98272.78
2023-10-26T23:16:54.748Z,98271.13
2023-10-26T23:19:21.468Z,98275.50
2023-10-26T23:21:48.746Z,98268.19
2023-10-26T23:24:15.517Z,98277.13
2023-10-26T23:26:42.204Z,98279.84
2023-10-26T23:29:08.864Z,98276.31
2023-10-26T23:31:35.814Z,98286.91
2023-10-26T23:34:02.537Z,98295.03
2023-10-26T23:36:29.289Z,98297.75
2023-10-26T23:38:56.266Z,98296.69
2023-10-26T23:41:22.847Z,98307.78
2023-10-26T23:43:49.529Z,98306.13
2023-10-26T23:46:16.180Z,98316.97
2023-10-26T23:48:42.900Z,98316.38
2023-10-26T23:51:09.607Z,98313.66
2023-10-26T23:53:36.238Z,98318.25
2023-10-26T23:56:03.418Z,98323.66
2023-10-26T23:58:30.136Z,98324.72
